sensor_id;sensor_type;location;lat;lon;timestamp;pressure;altitude;pressure_sealevel;temperature;humidity
13800;BME280;6971;50.028;9.258;2023-03-30T00:03:49;98904.06;;;7.42;100.00
13800;BME280;6971;50.028;9.258;2023-03-30T00:08:51;98896.19;;;7.42;100.00
13800;BME280;6971;50.028;9.258;2023-03-30T00:13:58;98893.41;;;7.46;100.00
13800;BME280;6971;50.028;9.258;2023-03-30T00:19:00;98887.19;;;7.48;100.00
13800;BME280;6971;50.028;9.258;2023-03-30T00:24:01;98881.69;;;7.53;100.00
13800;BME280;6971;50.028;9.258;2023-03-30T00:29:01;98896.72;;;7.49;100.00
13800;BME280;6971;50.028;9.258;2023-03-30T00:34:02;98886.31;;;7.48;100.00
13800;BME280;6971;50.028;9.258;2023-03-30T00:39:03;98882.16;;;7.43;100.00
13800;BME280;6971;50.028;9.258;2023-03-30T00:44:56;98878.13;;;7.54;100.00
13800;BME280;6971;50.028;9.258;2023-03-30T00:49:28;98881.81;;;7.50;100.00
13800;BME280;6971;50.028;9.258;2023-03-30T00:54:28;98875.16;;;7.62;100.00
13800;BME280;6971;50.028;9.258;2023-03-30T00:59:29;98882.94;;;7.63;100.00
13800;BME280;6971;50.028;9.258;2023-03-30T01:04:30;98870.78;;;7.61;100.00
13800;BME280;6971;50.028;9.258;2023-03-30T01:09:30;98866.25;;;7.64;100.00
13800;BME280;6971;50.028;9.258;2023-03-30T01:14:31;98855.53;;;7.69;100.00
13800;BME280;6971;50.028;9.258;2023-03-30T01:20:05;98849.53;;;7.67;100.00
13800;BME280;6971;50.028;9.258;2023-03-30T01:36:16;98853.78;;;7.52;100.00
13800;BME280;6971;50.028;9.258;2023-03-30T01:52:28;98844.97;;;7.35;100.00
13800;BME280;6971;50.028;9.258;2023-03-30T01:57:51;98838.78;;;7.36;100.00
13800;BME280;6971;50.028;9.258;2023-03-30T02:03:08;98833.47;;;7.38;100.00
13800;BME280;6971;50.028;9.258;2023-03-30T02:08:13;98836.50;;;7.48;100.00
13800;BME280;6971;50.028;9.258;2023-03-30T02:13:16;98842.81;;;7.61;100.00
13800;BME280;6971;50.028;9.258;2023-03-30T02:18:18;98846.03;;;7.66;100.00
13800;BME280;6971;50.028;9.258;2023-03-30T02:23:20;98839.09;;;7.65;100.00
13800;BME280;6971;50.028;9.258;2023-03-30T02:28:22;98852.75;;;7.72;100.00
13800;BME280;6971;50.028;9.258;2023-03-30T02:33:28;98848.97;;;7.78;100.00
13800;BME280;6971;50.028;9.258;2023-03-30T02:44:31;98854.91;;;7.81;100.00
13800;BME280;6971;50.028;9.258;2023-03-30T02:54:58;98866.84;;;7.87;100.00
13800;BME280;6971;50.028;9.258;2023-03-30T03:00:12;98840.78;;;7.84;100.00
13800;BME280;6971;50.028;9.258;2023-03-30T03:05:16;98848.63;;;7.84;100.00
13800;BME280;6971;50.028;9.258;2023-03-30T03:10:17;98846.19;;;7.81;100.00
13800;BME280;6971;50.028;9.258;2023-03-30T03:15:17;98828.34;;;7.88;100.00
13800;BME280;6971;50.028;9.258;2023-03-30T03:20:18;98827.66;;;7.84;100.00
13800;BME280;6971;50.028;9.258;2023-03-30T03:25:18;98865.78;;;7.91;100.00
13800;BME280;6971;50.028;9.258;2023-03-30T03:30:18;98873.50;;;7.94;100.00
13800;BME280;6971;50.028;9.258;2023-03-30T03:35:19;98848.69;;;8.00;100.00
13800;BME280;6971;50.028;9.258;2023-03-30T03:40:19;98855.28;;;7.91;100.00
13800;BME280;6971;50.028;9.258;2023-03-30T03:45:20;98855.81;;;7.98;100.00
13800;BME280;6971;50.028;9.258;2023-03-30T03:50:20;98886.13;;;8.04;100.00
13800;BME280;6971;50.028;9.258;2023-03-30T03:55:21;98877.44;;;8.19;100.00
13800;BME280;6971;50.028;9.258;2023-03-30T04:00:22;98868.28;;;8.10;100.00
13800;BME280;6971;50.028;9.258;2023-03-30T04:05:24;98869.13;;;8.11;100.00
13800;BME280;6971;50.028;9.258;2023-03-30T04:10:25;98834.84;;;8.14;100.00
13800;BME280;6971;50.028;9.258;2023-03-30T04:15:25;98815.09;;;8.07;100.00
13800;BME280;6971;50.028;9.258;2023-03-30T04:20:27;98787.41;;;8.01;100.00
13800;BME280;6971;50.028;9.258;2023-03-30T04:25:28;98755.06;;;8.17;100.00
13800;BME280;6971;50.028;9.258;2023-03-30T04:30:28;98723.56;;;8.17;100.00
13800;BME280;6971;50.028;9.258;2023-03-30T04:35:33;98726.88;;;8.04;100.00
13800;BME280;6971;50.028;9.258;2023-03-30T04:40:33;98713.50;;;8.09;100.00
13800;BME280;6971;50.028;9.258;2023-03-30T04:45:33;98724.75;;;8.11;100.00
13800;BME280;6971;50.028;9.258;2023-03-30T04:50:34;98713.09;;;8.17;100.00
13800;BME280;6971;50.028;9.258;2023-03-30T04:55:34;98707.31;;;8.10;100.00
13800;BME280;6971;50.028;9.258;2023-03-30T05:00:35;98698.28;;;8.16;100.00
13800;BME280;6971;50.028;9.258;2023-03-30T05:05:36;98680.91;;;8.13;100.00
13800;BME280;6971;50.028;9.258;2023-03-30T05:10:36;98666.28;;;8.09;100.00
13800;BME280;6971;50.028;9.258;2023-03-30T05:15:36;98689.03;;;8.08;100.00
13800;BME280;6971;50.028;9.258;2023-03-30T05:20:37;98716.56;;;8.17;100.00
13800;BME280;6971;50.028;9.258;2023-03-30T05:25:41;98795.75;;;8.26;100.00
13800;BME280;6971;50.028;9.258;2023-03-30T05:30:43;98801.06;;;8.40;100.00
13800;BME280;6971;50.028;9.258;2023-03-30T05:35:44;98798.88;;;8.48;100.00
13800;BME280;6971;50.028;9.258;2023-03-30T05:40:44;98783.19;;;8.47;100.00
13800;BME280;6971;50.028;9.258;2023-03-30T05:45:44;98776.34;;;8.44;100.00
13800;BME280;6971;50.028;9.258;2023-03-30T05:50:48;98788.13;;;8.53;100.00
13800;BME280;6971;50.028;9.258;2023-03-30T05:55:49;98790.66;;;8.55;100.00
13800;BME280;6971;50.028;9.258;2023-03-30T06:00:49;98774.41;;;8.64;100.00
13800;BME280;6971;50.028;9.258;2023-03-30T06:05:51;98789.13;;;8.67;100.00
13800;BME280;6971;50.028;9.258;2023-03-30T06:10:53;98807.53;;;8.67;100.00
13800;BME280;6971;50.028;9.258;2023-03-30T06:15:55;98837.63;;;8.61;100.00
13800;BME280;6971;50.028;9.258;2023-03-30T06:20:56;98833.38;;;8.74;100.00
13800;BME280;6971;50.028;9.258;2023-03-30T06:25:56;98842.00;;;8.77;100.00
13800;BME280;6971;50.028;9.258;2023-03-30T06:30:58;98849.16;;;8.74;100.00
13800;BME280;6971;50.028;9.258;2023-03-30T06:36:00;98841.00;;;8.79;100.00
13800;BME280;6971;50.028;9.258;2023-03-30T06:41:04;98858.38;;;8.82;100.00
13800;BME280;6971;50.028;9.258;2023-03-30T06:46:07;98835.75;;;8.79;100.00
13800;BME280;6971;50.028;9.258;2023-03-30T06:51:08;98824.97;;;8.84;100.00
13800;BME280;6971;50.028;9.258;2023-03-30T06:56:08;98831.25;;;8.81;100.00
13800;BME280;6971;50.028;9.258;2023-03-30T07:01:13;98859.72;;;8.89;100.00
13800;BME280;6971;50.028;9.258;2023-03-30T07:06:14;98838.75;;;9.04;100.00
13800;BME280;6971;50.028;9.258;2023-03-30T07:11:15;98837.22;;;9.61;100.00
13800;BME280;6971;50.028;9.258;2023-03-30T07:16:15;98824.22;;;9.88;100.00
13800;BME280;6971;50.028;9.258;2023-03-30T07:21:16;98821.63;;;10.16;100.00
13800;BME280;6971;50.028;9.258;2023-03-30T07:26:16;98835.94;;;10.26;100.00
13800;BME280;6971;50.028;9.258;2023-03-30T07:31:16;98821.75;;;10.29;100.00
13800;BME280;6971;50.028;9.258;2023-03-30T07:36:18;98817.47;;;10.41;100.00
13800;BME280;6971;50.028;9.258;2023-03-30T07:41:19;98832.72;;;10.50;100.00
13800;BME280;6971;50.028;9.258;2023-03-30T07:46:20;98829.03;;;10.67;100.00
13800;BME280;6971;50.028;9.258;2023-03-30T07:51:20;98831.78;;;10.66;100.00
13800;BME280;6971;50.028;9.258;2023-03-30T07:56:21;98786.47;;;10.74;100.00
13800;BME280;6971;50.028;9.258;2023-03-30T08:01:21;98789.13;;;10.87;100.00
13800;BME280;6971;50.028;9.258;2023-03-30T08:06:22;98810.44;;;10.83;100.00
13800;BME280;6971;50.028;9.258;2023-03-30T08:11:22;98805.84;;;11.00;100.00
13800;BME280;6971;50.028;9.258;2023-03-30T08:16:22;98798.59;;;11.04;100.00
13800;BME280;6971;50.028;9.258;2023-03-30T08:21:23;98814.03;;;11.23;100.00
13800;BME280;6971;50.028;9.258;2023-03-30T08:26:25;98796.00;;;11.30;100.00
13800;BME280;6971;50.028;9.258;2023-03-30T08:31:25;98807.38;;;11.30;100.00
13800;BME280;6971;50.028;9.258;2023-03-30T08:36:26;98827.22;;;11.23;100.00
13800;BME280;6971;50.028;9.258;2023-03-30T08:41:33;98830.06;;;11.20;100.00
13800;BME280;6971;50.028;9.258;2023-03-30T08:46:38;98832.06;;;11.16;100.00
13800;BME280;6971;50.028;9.258;2023-03-30T08:51:39;98836.22;;;11.33;100.00
13800;BME280;6971;50.028;9.258;2023-03-30T08:57:14;98841.81;;;11.42;100.00
13800;BME280;6971;50.028;9.258;2023-03-30T09:02:26;98835.28;;;11.47;100.00
13800;BME280;6971;50.028;9.258;2023-03-30T09:07:34;98832.66;;;11.60;100.00
13800;BME280;6971;50.028;9.258;2023-03-30T09:17:41;98841.97;;;11.66;100.00
13800;BME280;6971;50.028;9.258;2023-03-30T09:22:44;98833.19;;;11.66;100.00
13800;BME280;6971;50.028;9.258;2023-03-30T09:27:57;98839.28;;;11.53;100.00
13800;BME280;6971;50.028;9.258;2023-03-30T09:33:05;98837.22;;;11.58;100.00
13800;BME280;6971;50.028;9.258;2023-03-30T09:38:12;98849.34;;;11.61;100.00
13800;BME280;6971;50.028;9.258;2023-03-30T09:43:27;98839.91;;;11.44;100.00
13800;BME280;6971;50.028;9.258;2023-03-30T09:48:47;98845.84;;;11.60;100.00
13800;BME280;6971;50.028;9.258;2023-03-30T09:53:50;98841.09;;;11.66;100.00
13800;BME280;6971;50.028;9.258;2023-03-30T09:58:53;98841.75;;;11.82;100.00
13800;BME280;6971;50.028;9.258;2023-03-30T10:04:10;98830.88;;;12.13;100.00
13800;BME280;6971;50.028;9.258;2023-03-30T10:09:12;98834.69;;;12.22;100.00
13800;BME280;6971;50.028;9.258;2023-03-30T10:14:32;98814.63;;;12.06;100.00
13800;BME280;6971;50.028;9.258;2023-03-30T10:19:34;98828.78;;;12.05;100.00
13800;BME280;6971;50.028;9.258;2023-03-30T10:24:48;98809.94;;;11.97;100.00
13800;BME280;6971;50.028;9.258;2023-03-30T10:29:49;98820.09;;;12.29;100.00
13800;BME280;6971;50.028;9.258;2023-03-30T10:34:54;98828.34;;;12.24;100.00
13800;BME280;6971;50.028;9.258;2023-03-30T10:39:57;98819.66;;;12.35;100.00
13800;BME280;6971;50.028;9.258;2023-03-30T10:45:00;98813.09;;;12.28;100.00
13800;BME280;6971;50.028;9.258;2023-03-30T10:55:36;98822.50;;;13.18;100.00
13800;BME280;6971;50.028;9.258;2023-03-30T11:00:53;98815.66;;;13.27;100.00
13800;BME280;6971;50.028;9.258;2023-03-30T11:06:03;98827.72;;;13.31;100.00
13800;BME280;6971;50.028;9.258;2023-03-30T11:11:06;98831.69;;;13.37;100.00
13800;BME280;6971;50.028;9.258;2023-03-30T11:21:39;98828.28;;;13.48;95.10
13800;BME280;6971;50.028;9.258;2023-03-30T11:43:02;98812.81;;;14.01;90.19
13800;BME280;6971;50.028;9.258;2023-03-30T12:04:27;98805.31;;;14.40;83.27
13800;BME280;6971;50.028;9.258;2023-03-30T12:09:36;98797.38;;;14.96;82.31
13800;BME280;6971;50.028;9.258;2023-03-30T12:20:26;98811.19;;;15.96;73.51
13800;BME280;6971;50.028;9.258;2023-03-30T12:31:01;98795.28;;;16.06;73.24
13800;BME280;6971;50.028;9.258;2023-03-30T12:36:36;98771.81;;;15.59;77.24
13800;BME280;6971;50.028;9.258;2023-03-30T12:41:47;98769.47;;;16.28;72.75
13800;BME280;6971;50.028;9.258;2023-03-30T12:52:10;98776.38;;;15.99;68.09
13800;BME280;6971;50.028;9.258;2023-03-30T13:07:54;98722.59;;;16.37;68.51
13800;BME280;6971;50.028;9.258;2023-03-30T13:12:56;98710.19;;;16.47;64.46
13800;BME280;6971;50.028;9.258;2023-03-30T13:33:33;98712.41;;;15.91;64.56
13800;BME280;6971;50.028;9.258;2023-03-30T13:54:46;98846.88;;;12.49;91.69
13800;BME280;6971;50.028;9.258;2023-03-30T13:59:51;98807.91;;;11.09;100.00
13800;BME280;6971;50.028;9.258;2023-03-30T14:04:53;98808.63;;;11.12;100.00
13800;BME280;6971;50.028;9.258;2023-03-30T14:10:17;98792.44;;;10.90;100.00
13800;BME280;6971;50.028;9.258;2023-03-30T14:15:24;98797.97;;;10.73;100.00
13800;BME280;6971;50.028;9.258;2023-03-30T14:20:52;98807.53;;;10.46;100.00
13800;BME280;6971;50.028;9.258;2023-03-30T14:26:10;98817.03;;;10.49;100.00
13800;BME280;6971;50.028;9.258;2023-03-30T14:31:14;98812.97;;;10.57;100.00
13800;BME280;6971;50.028;9.258;2023-03-30T14:36:17;98799.59;;;10.88;100.00
13800;BME280;6971;50.028;9.258;2023-03-30T14:41:24;98790.91;;;11.14;100.00
13800;BME280;6971;50.028;9.258;2023-03-30T14:46:34;98795.78;;;11.33;100.00
13800;BME280;6971;50.028;9.258;2023-03-30T14:51:38;98823.91;;;11.06;100.00
13800;BME280;6971;50.028;9.258;2023-03-30T14:56:42;98835.50;;;11.04;100.00
13800;BME280;6971;50.028;9.258;2023-03-30T15:01:44;98836.59;;;11.14;100.00
13800;BME280;6971;50.028;9.258;2023-03-30T15:06:45;98806.84;;;10.84;100.00
13800;BME280;6971;50.028;9.258;2023-03-30T15:16:54;98803.94;;;10.62;100.00
13800;BME280;6971;50.028;9.258;2023-03-30T15:22:02;98866.78;;;10.39;100.00
13800;BME280;6971;50.028;9.258;2023-03-30T15:27:07;98863.69;;;10.32;100.00
13800;BME280;6971;50.028;9.258;2023-03-30T15:37:21;98851.84;;;10.25;100.00
13800;BME280;6971;50.028;9.258;2023-03-30T15:42:30;98851.72;;;10.70;100.00
13800;BME280;6971;50.028;9.258;2023-03-30T15:47:31;98854.75;;;10.91;100.00
13800;BME280;6971;50.028;9.258;2023-03-30T15:52:37;98847.66;;;11.06;100.00
13800;BME280;6971;50.028;9.258;2023-03-30T15:57:45;98835.56;;;10.89;100.00
13800;BME280;6971;50.028;9.258;2023-03-30T16:02:49;98815.53;;;11.27;100.00
13800;BME280;6971;50.028;9.258;2023-03-30T16:08:08;98820.31;;;11.74;100.00
13800;BME280;6971;50.028;9.258;2023-03-30T16:13:10;98817.44;;;11.51;100.00
13800;BME280;6971;50.028;9.258;2023-03-30T16:18:10;98805.13;;;11.52;100.00
13800;BME280;6971;50.028;9.258;2023-03-30T16:23:11;98787.25;;;10.89;100.00
13800;BME280;6971;50.028;9.258;2023-03-30T16:28:15;98786.91;;;10.80;100.00
13800;BME280;6971;50.028;9.258;2023-03-30T16:33:16;98795.63;;;10.68;100.00
13800;BME280;6971;50.028;9.258;2023-03-30T16:38:17;98804.13;;;10.86;100.00
13800;BME280;6971;50.028;9.258;2023-03-30T16:43:17;98824.34;;;10.86;100.00
13800;BME280;6971;50.028;9.258;2023-03-30T16:48:18;98845.06;;;10.92;100.00
13800;BME280;6971;50.028;9.258;2023-03-30T16:53:19;98829.81;;;10.82;100.00
13800;BME280;6971;50.028;9.258;2023-03-30T16:58:19;98838.28;;;10.60;100.00
13800;BME280;6971;50.028;9.258;2023-03-30T17:03:20;98834.31;;;10.53;100.00
13800;BME280;6971;50.028;9.258;2023-03-30T17:08:23;98838.97;;;10.49;100.00
13800;BME280;6971;50.028;9.258;2023-03-30T17:13:24;98841.94;;;10.57;100.00
13800;BME280;6971;50.028;9.258;2023-03-30T17:18:24;98830.88;;;10.52;100.00
13800;BME280;6971;50.028;9.258;2023-03-30T17:23:28;98839.59;;;10.53;100.00
13800;BME280;6971;50.028;9.258;2023-03-30T17:28:33;98838.50;;;10.28;100.00
13800;BME280;6971;50.028;9.258;2023-03-30T17:33:33;98836.44;;;10.18;100.00
13800;BME280;6971;50.028;9.258;2023-03-30T17:38:35;98837.53;;;10.00;100.00
13800;BME280;6971;50.028;9.258;2023-03-30T17:43:36;98825.81;;;9.76;100.00
13800;BME280;6971;50.028;9.258;2023-03-30T17:48:36;98833.47;;;9.65;100.00
13800;BME280;6971;50.028;9.258;2023-03-30T17:53:36;98841.69;;;9.44;100.00
13800;BME280;6971;50.028;9.258;2023-03-30T17:58:37;98846.66;;;9.34;100.00
13800;BME280;6971;50.028;9.258;2023-03-30T18:03:37;98858.22;;;9.16;100.00
13800;BME280;6971;50.028;9.258;2023-03-30T18:08:38;98866.81;;;8.87;100.00
13800;BME280;6971;50.028;9.258;2023-03-30T18:13:39;98858.97;;;8.71;100.00
13800;BME280;6971;50.028;9.258;2023-03-30T18:18:40;98865.53;;;8.46;100.00
13800;BME280;6971;50.028;9.258;2023-03-30T18:23:40;98862.19;;;8.26;100.00
13800;BME280;6971;50.028;9.258;2023-03-30T18:28:41;98870.72;;;8.14;100.00
13800;BME280;6971;50.028;9.258;2023-03-30T18:33:42;98883.50;;;8.04;100.00
13800;BME280;6971;50.028;9.258;2023-03-30T18:38:42;98877.81;;;7.95;100.00
13800;BME280;6971;50.028;9.258;2023-03-30T18:43:43;98881.03;;;8.01;100.00
13800;BME280;6971;50.028;9.258;2023-03-30T18:48:43;98885.84;;;7.75;100.00
13800;BME280;6971;50.028;9.258;2023-03-30T18:53:44;98881.47;;;7.75;100.00
13800;BME280;6971;50.028;9.258;2023-03-30T18:58:44;98890.34;;;7.55;100.00
13800;BME280;6971;50.028;9.258;2023-03-30T19:03:44;98890.81;;;7.46;100.00
13800;BME280;6971;50.028;9.258;2023-03-30T19:08:44;98902.97;;;7.47;100.00
13800;BME280;6971;50.028;9.258;2023-03-30T19:13:45;98908.81;;;7.34;100.00
13800;BME280;6971;50.028;9.258;2023-03-30T19:18:46;98910.13;;;7.43;100.00
13800;BME280;6971;50.028;9.258;2023-03-30T19:23:48;98904.97;;;7.41;100.00
13800;BME280;6971;50.028;9.258;2023-03-30T19:28:49;98904.53;;;7.51;100.00
13800;BME280;6971;50.028;9.258;2023-03-30T19:33:49;98901.50;;;7.58;100.00
13800;BME280;6971;50.028;9.258;2023-03-30T19:38:50;98896.41;;;7.55;100.00
13800;BME280;6971;50.028;9.258;2023-03-30T19:43:50;98905.59;;;7.64;100.00
13800;BME280;6971;50.028;9.258;2023-03-30T19:48:50;98907.84;;;7.72;100.00
13800;BME280;6971;50.028;9.258;2023-03-30T19:53:51;98904.06;;;7.78;100.00
13800;BME280;6971;50.028;9.258;2023-03-30T19:58:51;98890.41;;;7.71;100.00
13800;BME280;6971;50.028;9.258;2023-03-30T20:03:51;98890.41;;;7.71;100.00
13800;BME280;6971;50.028;9.258;2023-03-30T20:08:52;98886.31;;;7.65;100.00
13800;BME280;6971;50.028;9.258;2023-03-30T20:13:53;98884.78;;;7.61;100.00
13800;BME280;6971;50.028;9.258;2023-03-30T20:18:54;98886.47;;;7.62;100.00
13800;BME280;6971;50.028;9.258;2023-03-30T20:23:56;98890.63;;;7.66;100.00
13800;BME280;6971;50.028;9.258;2023-03-30T20:28:59;98892.09;;;7.72;100.00
13800;BME280;6971;50.028;9.258;2023-03-30T20:34:00;98893.84;;;7.71;100.00
13800;BME280;6971;50.028;9.258;2023-03-30T20:39:01;98892.97;;;7.73;100.00
13800;BME280;6971;50.028;9.258;2023-03-30T20:44:01;98890.78;;;7.81;100.00
13800;BME280;6971;50.028;9.258;2023-03-30T20:49:03;98889.25;;;7.77;100.00
13800;BME280;6971;50.028;9.258;2023-03-30T20:54:05;98874.66;;;7.71;100.00
13800;BME280;6971;50.028;9.258;2023-03-30T20:59:06;98871.78;;;7.76;100.00
13800;BME280;6971;50.028;9.258;2023-03-30T21:04:06;98867.72;;;7.88;100.00
13800;BME280;6971;50.028;9.258;2023-03-30T21:09:07;98868.28;;;7.77;100.00
13800;BME280;6971;50.028;9.258;2023-03-30T21:14:10;98857.59;;;7.80;100.00
13800;BME280;6971;50.028;9.258;2023-03-30T21:19:11;98860.75;;;7.87;100.00
13800;BME280;6971;50.028;9.258;2023-03-30T21:24:11;98846.63;;;7.89;100.00
13800;BME280;6971;50.028;9.258;2023-03-30T21:29:12;98842.84;;;7.95;100.00
13800;BME280;6971;50.028;9.258;2023-03-30T21:34:12;98833.78;;;8.01;100.00
13800;BME280;6971;50.028;9.258;2023-03-30T21:39:13;98848.44;;;8.05;100.00
13800;BME280;6971;50.028;9.258;2023-03-30T21:44:14;98842.13;;;8.09;100.00
13800;BME280;6971;50.028;9.258;2023-03-30T21:49:14;98830.44;;;8.15;100.00
13800;BME280;6971;50.028;9.258;2023-03-30T21:54:15;98831.34;;;8.14;100.00
13800;BME280;6971;50.028;9.258;2023-03-30T21:59:16;98818.75;;;8.20;100.00
13800;BME280;6971;50.028;9.258;2023-03-30T22:04:17;98821.06;;;8.27;100.00
13800;BME280;6971;50.028;9.258;2023-03-30T22:09:18;98812.75;;;8.18;100.00
13800;BME280;6971;50.028;9.258;2023-03-30T22:14:18;98807.06;;;8.10;100.00
13800;BME280;6971;50.028;9.258;2023-03-30T22:19:19;98806.91;;;8.13;100.00
13800;BME280;6971;50.028;9.258;2023-03-30T22:24:21;98798.00;;;8.16;100.00
13800;BME280;6971;50.028;9.258;2023-03-30T22:29:22;98792.16;;;8.10;100.00
13800;BME280;6971;50.028;9.258;2023-03-30T22:34:22;98777.31;;;8.09;100.00
13800;BME280;6971;50.028;9.258;2023-03-30T22:39:22;98773.50;;;7.83;100.00
13800;BME280;6971;50.028;9.258;2023-03-30T22:44:23;98765.41;;;7.88;100.00
13800;BME280;6971;50.028;9.258;2023-03-30T22:49:23;98770.28;;;7.94;100.00
13800;BME280;6971;50.028;9.258;2023-03-30T22:54:24;98766.72;;;7.79;100.00
13800;BME280;6971;50.028;9.258;2023-03-30T22:59:24;98763.53;;;7.90;100.00
13800;BME280;6971;50.028;9.258;2023-03-30T23:04:25;98760.38;;;7.83;100.00
13800;BME280;6971;50.028;9.258;2023-03-30T23:09:27;98760.66;;;7.94;100.00
13800;BME280;6971;50.028;9.258;2023-03-30T23:14:27;98758.13;;;7.93;100.00
13800;BME280;6971;50.028;9.258;2023-03-30T23:19:28;98760.47;;;7.97;100.00
13800;BME280;6971;50.028;9.258;2023-03-30T23:24:28;98735.34;;;7.93;100.00
13800;BME280;6971;50.028;9.258;2023-03-30T23:29:28;98736.09;;;7.95;100.00
13800;BME280;6971;50.028;9.258;2023-03-30T23:34:29;98716.81;;;7.96;100.00
13800;BME280;6971;50.028;9.258;2023-03-30T23:39:31;98706.66;;;7.90;100.00
13800;BME280;6971;50.028;9.258;2023-03-30T23:44:32;98702.94;;;7.94;100.00
13800;BME280;6971;50.028;9.258;2023-03-30T23:49:32;98690.28;;;7.85;100.00
13800;BME280;6971;50.028;9.258;2023-03-30T23:54:33;98689.91;;;7.77;100.00
13800;BME280;6971;50.028;9.258;2023-03-30T23:59:36;98673.72;;;7.84;100.00
